CheckWX is a tool to help pilots better visualize weather data.  It is not intended as a substitute for an official pre-flight weather briefing.

06:08:03 UTC

KSFO METAR
San Francisco International Airport
San Francisco, California, USA
Current

1 hour ago

KSFO 200456Z 26007KT 10SM FEW020 SCT025 BKN200 10/05 A3012 RMK AO2 SLP200 T01000050
Observed
Feb-20 @ 04:56 UTC
Wind
  • 260° at 7 KTS
Visibility
16,093 meters
Flight Rules
VFR
Cloud Levels
  • Few at 2,000' AGL
  • Scattered at 2,500' AGL
  • Broken at 20,000' AGL
Temperature
10°C / 50°F
Dewpoint
C / 41°F
Humidity
71%
Altimeter
30.12" Hg
Pressure
1020 hPa
Previous

2 hours ago

KSFO 200356Z 27011KT 10SM FEW025 BKN200 10/04 A3014 RMK AO2 SLP206 T01000044
Observed
Feb-20 @ 03:56 UTC
Wind
  • 270° at 11 KTS
Visibility
16,093 meters
Flight Rules
VFR
Cloud Levels
  • Few at 2,500' AGL
  • Broken at 20,000' AGL
Temperature
10°C / 50°F
Dewpoint
C / 39°F
Humidity
67%
Altimeter
30.14" Hg
Pressure
1020.6 hPa
Previous

3 hours ago

KSFO 200256Z 25009KT 10SM FEW046 SCT200 10/03 A3014 RMK AO2 SLP207 T01000028 56011
Observed
Feb-20 @ 02:56 UTC
Wind
  • 250° at 9 KTS
Visibility
16,093 meters
Flight Rules
VFR
Cloud Levels
  • Few at 4,600' AGL
  • Scattered at 20,000' AGL
Temperature
10°C / 50°F
Dewpoint
C / 37°F
Humidity
62%
Altimeter
30.14" Hg
Pressure
1020.7 hPa